sensor_id;sensor_type;location;lat;lon;timestamp;P1;durP1;ratioP1;P2;durP2;ratioP2
18066;SDS011;9158;51.528;7.192;2022-10-22T00:00:01;5.95;;;2.50;;
18066;SDS011;9158;51.528;7.192;2022-10-22T00:00:35;3.13;;;2.50;;
18066;SDS011;9158;51.528;7.192;2022-10-22T00:01:06;2.30;;;2.10;;
18066;SDS011;9158;51.528;7.192;2022-10-22T00:01:37;3.20;;;2.80;;
18066;SDS011;9158;51.528;7.192;2022-10-22T00:02:09;4.68;;;2.50;;
18066;SDS011;9158;51.528;7.192;2022-10-22T00:02:40;4.88;;;2.70;;
18066;SDS011;9158;51.528;7.192;2022-10-22T00:03:11;3.30;;;3.00;;
18066;SDS011;9158;51.528;7.192;2022-10-22T00:03:42;3.83;;;2.90;;
18066;SDS011;9158;51.528;7.192;2022-10-22T00:04:14;8.18;;;3.08;;
18066;SDS011;9158;51.528;7.192;2022-10-22T00:04:45;3.20;;;2.28;;
18066;SDS011;9158;51.528;7.192;2022-10-22T00:05:16;2.60;;;2.40;;
18066;SDS011;9158;51.528;7.192;2022-10-22T00:05:47;3.03;;;2.30;;
18066;SDS011;9158;51.528;7.192;2022-10-22T00:06:19;3.50;;;2.60;;
18066;SDS011;9158;51.528;7.192;2022-10-22T00:06:50;3.43;;;2.80;;
18066;SDS011;9158;51.528;7.192;2022-10-22T00:07:21;9.10;;;2.47;;
18066;SDS011;9158;51.528;7.192;2022-10-22T00:07:53;2.78;;;2.28;;
18066;SDS011;9158;51.528;7.192;2022-10-22T00:08:24;2.93;;;2.30;;
18066;SDS011;9158;51.528;7.192;2022-10-22T00:08:56;3.78;;;2.00;;
18066;SDS011;9158;51.528;7.192;2022-10-22T00:09:28;4.00;;;2.40;;
18066;SDS011;9158;51.528;7.192;2022-10-22T00:09:59;3.50;;;2.80;;
18066;SDS011;9158;51.528;7.192;2022-10-22T00:10:30;3.13;;;2.83;;
18066;SDS011;9158;51.528;7.192;2022-10-22T00:11:06;8.97;;;3.43;;
18066;SDS011;9158;51.528;7.192;2022-10-22T00:11:40;3.22;;;2.38;;
18066;SDS011;9158;51.528;7.192;2022-10-22T00:12:11;2.63;;;2.38;;
18066;SDS011;9158;51.528;7.192;2022-10-22T00:12:43;2.58;;;2.35;;
18066;SDS011;9158;51.528;7.192;2022-10-22T00:13:15;2.65;;;2.45;;
18066;SDS011;9158;51.528;7.192;2022-10-22T00:13:46;2.88;;;2.65;;
18066;SDS011;9158;51.528;7.192;2022-10-22T00:14:17;6.75;;;2.22;;
18066;SDS011;9158;51.528;7.192;2022-10-22T00:14:49;4.05;;;3.35;;
18066;SDS011;9158;51.528;7.192;2022-10-22T00:15:20;4.00;;;2.15;;
18066;SDS011;9158;51.528;7.192;2022-10-22T00:15:51;2.47;;;2.28;;
18066;SDS011;9158;51.528;7.192;2022-10-22T00:16:22;3.80;;;3.07;;
18066;SDS011;9158;51.528;7.192;2022-10-22T00:16:54;4.63;;;2.75;;
18066;SDS011;9158;51.528;7.192;2022-10-22T00:17:25;4.28;;;2.90;;
18066;SDS011;9158;51.528;7.192;2022-10-22T00:17:56;8.60;;;2.43;;
18066;SDS011;9158;51.528;7.192;2022-10-22T00:18:28;3.35;;;2.20;;
18066;SDS011;9158;51.528;7.192;2022-10-22T00:18:59;4.93;;;2.85;;
18066;SDS011;9158;51.528;7.192;2022-10-22T00:19:30;4.15;;;2.33;;
18066;SDS011;9158;51.528;7.192;2022-10-22T00:20:01;3.10;;;2.83;;
18066;SDS011;9158;51.528;7.192;2022-10-22T00:20:33;3.20;;;2.05;;
18066;SDS011;9158;51.528;7.192;2022-10-22T00:21:04;4.10;;;2.53;;
18066;SDS011;9158;51.528;7.192;2022-10-22T00:21:36;4.45;;;2.95;;
18066;SDS011;9158;51.528;7.192;2022-10-22T00:22:08;3.08;;;2.78;;
18066;SDS011;9158;51.528;7.192;2022-10-22T00:22:40;2.42;;;2.22;;
18066;SDS011;9158;51.528;7.192;2022-10-22T00:23:10;3.13;;;2.67;;
18066;SDS011;9158;51.528;7.192;2022-10-22T00:23:42;3.60;;;2.80;;
18066;SDS011;9158;51.528;7.192;2022-10-22T00:24:15;2.97;;;2.60;;
18066;SDS011;9158;51.528;7.192;2022-10-22T00:24:45;4.35;;;2.42;;
18066;SDS011;9158;51.528;7.192;2022-10-22T00:25:17;2.42;;;2.20;;
18066;SDS011;9158;51.528;7.192;2022-10-22T00:25:48;2.80;;;2.07;;
18066;SDS011;9158;51.528;7.192;2022-10-22T00:26:19;3.23;;;2.40;;
18066;SDS011;9158;51.528;7.192;2022-10-22T00:26:51;2.90;;;2.28;;
18066;SDS011;9158;51.528;7.192;2022-10-22T00:27:22;2.83;;;2.22;;
18066;SDS011;9158;51.528;7.192;2022-10-22T00:27:53;3.55;;;2.40;;
18066;SDS011;9158;51.528;7.192;2022-10-22T00:28:25;2.78;;;2.17;;
18066;SDS011;9158;51.528;7.192;2022-10-22T00:28:56;5.68;;;2.63;;
18066;SDS011;9158;51.528;7.192;2022-10-22T00:29:27;2.63;;;2.03;;
18066;SDS011;9158;51.528;7.192;2022-10-22T00:29:59;4.53;;;2.50;;
18066;SDS011;9158;51.528;7.192;2022-10-22T00:30:30;3.50;;;2.30;;
18066;SDS011;9158;51.528;7.192;2022-10-22T00:31:01;5.37;;;2.17;;
18066;SDS011;9158;51.528;7.192;2022-10-22T00:31:33;4.22;;;2.22;;
18066;SDS011;9158;51.528;7.192;2022-10-22T00:32:04;3.65;;;2.20;;
18066;SDS011;9158;51.528;7.192;2022-10-22T00:32:36;6.25;;;2.30;;
18066;SDS011;9158;51.528;7.192;2022-10-22T00:33:08;3.60;;;2.40;;
18066;SDS011;9158;51.528;7.192;2022-10-22T00:33:39;3.50;;;2.57;;
18066;SDS011;9158;51.528;7.192;2022-10-22T00:34:10;4.30;;;2.17;;
18066;SDS011;9158;51.528;7.192;2022-10-22T00:34:42;5.38;;;2.72;;
18066;SDS011;9158;51.528;7.192;2022-10-22T00:35:12;4.85;;;2.88;;
18066;SDS011;9158;51.528;7.192;2022-10-22T00:35:43;3.60;;;2.50;;
18066;SDS011;9158;51.528;7.192;2022-10-22T00:36:14;2.83;;;2.63;;
18066;SDS011;9158;51.528;7.192;2022-10-22T00:36:47;3.63;;;2.75;;
18066;SDS011;9158;51.528;7.192;2022-10-22T00:37:18;3.75;;;2.42;;
18066;SDS011;9158;51.528;7.192;2022-10-22T00:37:49;3.70;;;2.40;;
18066;SDS011;9158;51.528;7.192;2022-10-22T00:38:21;4.20;;;2.30;;
18066;SDS011;9158;51.528;7.192;2022-10-22T00:38:52;5.50;;;2.90;;
18066;SDS011;9158;51.528;7.192;2022-10-22T00:39:25;4.30;;;2.10;;
18066;SDS011;9158;51.528;7.192;2022-10-22T00:39:57;4.35;;;2.28;;
18066;SDS011;9158;51.528;7.192;2022-10-22T00:40:28;3.33;;;2.00;;
18066;SDS011;9158;51.528;7.192;2022-10-22T00:40:59;12.15;;;4.38;;
18066;SDS011;9158;51.528;7.192;2022-10-22T00:41:31;4.93;;;2.45;;
18066;SDS011;9158;51.528;7.192;2022-10-22T00:42:02;5.03;;;2.93;;
18066;SDS011;9158;51.528;7.192;2022-10-22T00:42:33;3.13;;;2.50;;
18066;SDS011;9158;51.528;7.192;2022-10-22T00:43:04;3.63;;;2.30;;
18066;SDS011;9158;51.528;7.192;2022-10-22T00:45:46;4.93;;;2.00;;
18066;SDS011;9158;51.528;7.192;2022-10-22T00:46:17;3.85;;;2.47;;
18066;SDS011;9158;51.528;7.192;2022-10-22T00:46:48;4.07;;;2.20;;
18066;SDS011;9158;51.528;7.192;2022-10-22T00:47:20;2.22;;;2.03;;
18066;SDS011;9158;51.528;7.192;2022-10-22T00:47:54;3.63;;;3.30;;
18066;SDS011;9158;51.528;7.192;2022-10-22T00:48:29;5.05;;;3.00;;
18066;SDS011;9158;51.528;7.192;2022-10-22T00:49:03;7.55;;;2.75;;
18066;SDS011;9158;51.528;7.192;2022-10-22T00:49:34;5.10;;;2.20;;
18066;SDS011;9158;51.528;7.192;2022-10-22T00:50:06;3.28;;;1.92;;
18066;SDS011;9158;51.528;7.192;2022-10-22T00:50:41;2.85;;;2.50;;
18066;SDS011;9158;51.528;7.192;2022-10-22T00:51:16;3.15;;;2.17;;
18066;SDS011;9158;51.528;7.192;2022-10-22T00:51:49;4.03;;;2.20;;
18066;SDS011;9158;51.528;7.192;2022-10-22T00:52:20;2.80;;;2.37;;
18066;SDS011;9158;51.528;7.192;2022-10-22T00:52:51;3.85;;;2.40;;
18066;SDS011;9158;51.528;7.192;2022-10-22T00:53:25;3.05;;;2.30;;
18066;SDS011;9158;51.528;7.192;2022-10-22T00:54:02;3.05;;;1.92;;
18066;SDS011;9158;51.528;7.192;2022-10-22T00:54:38;3.40;;;2.40;;
18066;SDS011;9158;51.528;7.192;2022-10-22T00:55:10;6.07;;;2.80;;
18066;SDS011;9158;51.528;7.192;2022-10-22T00:55:43;2.50;;;2.30;;
18066;SDS011;9158;51.528;7.192;2022-10-22T00:56:17;3.03;;;2.00;;
18066;SDS011;9158;51.528;7.192;2022-10-22T00:56:49;3.22;;;2.10;;
18066;SDS011;9158;51.528;7.192;2022-10-22T00:57:20;5.35;;;2.15;;
18066;SDS011;9158;51.528;7.192;2022-10-22T00:57:52;9.63;;;2.40;;
18066;SDS011;9158;51.528;7.192;2022-10-22T00:58:26;5.50;;;2.15;;
18066;SDS011;9158;51.528;7.192;2022-10-22T00:58:59;3.33;;;2.30;;
18066;SDS011;9158;51.528;7.192;2022-10-22T00:59:31;3.72;;;1.90;;
18066;SDS011;9158;51.528;7.192;2022-10-22T01:00:04;6.05;;;2.20;;
18066;SDS011;9158;51.528;7.192;2022-10-22T01:00:35;5.80;;;2.15;;
18066;SDS011;9158;51.528;7.192;2022-10-22T01:01:07;2.58;;;2.25;;
18066;SDS011;9158;51.528;7.192;2022-10-22T01:01:43;4.07;;;3.10;;
18066;SDS011;9158;51.528;7.192;2022-10-22T01:02:15;2.47;;;2.15;;
18066;SDS011;9158;51.528;7.192;2022-10-22T01:02:47;3.25;;;2.45;;
18066;SDS011;9158;51.528;7.192;2022-10-22T01:03:20;3.35;;;2.50;;
18066;SDS011;9158;51.528;7.192;2022-10-22T01:03:51;2.40;;;2.20;;
18066;SDS011;9158;51.528;7.192;2022-10-22T01:04:22;5.90;;;2.78;;
18066;SDS011;9158;51.528;7.192;2022-10-22T01:04:54;5.18;;;2.20;;
18066;SDS011;9158;51.528;7.192;2022-10-22T01:05:26;2.90;;;2.40;;
18066;SDS011;9158;51.528;7.192;2022-10-22T01:05:58;3.38;;;2.83;;
18066;SDS011;9158;51.528;7.192;2022-10-22T01:06:33;4.40;;;3.03;;
18066;SDS011;9158;51.528;7.192;2022-10-22T01:07:04;8.15;;;2.90;;
18066;SDS011;9158;51.528;7.192;2022-10-22T01:07:37;9.20;;;2.50;;
18066;SDS011;9158;51.528;7.192;2022-10-22T01:08:13;3.40;;;2.70;;
18066;SDS011;9158;51.528;7.192;2022-10-22T01:08:53;3.22;;;2.30;;
18066;SDS011;9158;51.528;7.192;2022-10-22T01:09:33;5.30;;;2.70;;
18066;SDS011;9158;51.528;7.192;2022-10-22T01:10:13;2.38;;;1.80;;
18066;SDS011;9158;51.528;7.192;2022-10-22T01:10:58;4.57;;;2.25;;
18066;SDS011;9158;51.528;7.192;2022-10-22T01:11:39;4.50;;;1.90;;
18066;SDS011;9158;51.528;7.192;2022-10-22T01:12:21;2.80;;;2.10;;
18066;SDS011;9158;51.528;7.192;2022-10-22T01:13:08;4.65;;;2.88;;
18066;SDS011;9158;51.528;7.192;2022-10-22T01:13:51;5.00;;;2.97;;
18066;SDS011;9158;51.528;7.192;2022-10-22T01:14:28;3.10;;;2.17;;
18066;SDS011;9158;51.528;7.192;2022-10-22T01:15:08;3.95;;;2.28;;
18066;SDS011;9158;51.528;7.192;2022-10-22T01:15:47;2.60;;;2.10;;
18066;SDS011;9158;51.528;7.192;2022-10-22T01:16:28;6.13;;;2.97;;
18066;SDS011;9158;51.528;7.192;2022-10-22T01:17:05;7.82;;;2.22;;
18066;SDS011;9158;51.528;7.192;2022-10-22T01:17:41;4.80;;;2.53;;
18066;SDS011;9158;51.528;7.192;2022-10-22T01:18:22;2.38;;;2.00;;
18066;SDS011;9158;51.528;7.192;2022-10-22T01:19:03;6.53;;;3.65;;
18066;SDS011;9158;51.528;7.192;2022-10-22T01:19:53;3.28;;;2.70;;
18066;SDS011;9158;51.528;7.192;2022-10-22T01:21:35;2.63;;;1.92;;
18066;SDS011;9158;51.528;7.192;2022-10-22T01:22:13;3.20;;;2.15;;
18066;SDS011;9158;51.528;7.192;2022-10-22T01:22:51;4.80;;;2.53;;
18066;SDS011;9158;51.528;7.192;2022-10-22T01:23:33;4.22;;;2.53;;
18066;SDS011;9158;51.528;7.192;2022-10-22T01:24:34;2.88;;;2.55;;
18066;SDS011;9158;51.528;7.192;2022-10-22T01:25:16;2.85;;;2.00;;
18066;SDS011;9158;51.528;7.192;2022-10-22T01:25:55;3.50;;;2.85;;
18066;SDS011;9158;51.528;7.192;2022-10-22T01:26:36;2.90;;;2.00;;
18066;SDS011;9158;51.528;7.192;2022-10-22T01:27:41;11.10;;;2.90;;
18066;SDS011;9158;51.528;7.192;2022-10-22T01:28:25;5.65;;;2.10;;
18066;SDS011;9158;51.528;7.192;2022-10-22T01:29:12;6.40;;;2.60;;
18066;SDS011;9158;51.528;7.192;2022-10-22T01:29:48;1.80;;;1.65;;
18066;SDS011;9158;51.528;7.192;2022-10-22T01:30:22;2.72;;;2.53;;
18066;SDS011;9158;51.528;7.192;2022-10-22T01:30:54;4.43;;;2.25;;
18066;SDS011;9158;51.528;7.192;2022-10-22T01:31:28;3.45;;;2.75;;
18066;SDS011;9158;51.528;7.192;2022-10-22T01:32:04;4.88;;;2.40;;
18066;SDS011;9158;51.528;7.192;2022-10-22T01:32:39;3.80;;;2.13;;
18066;SDS011;9158;51.528;7.192;2022-10-22T01:33:16;4.38;;;2.67;;
18066;SDS011;9158;51.528;7.192;2022-10-22T01:33:48;3.88;;;2.50;;
18066;SDS011;9158;51.528;7.192;2022-10-22T01:34:22;3.47;;;2.20;;
18066;SDS011;9158;51.528;7.192;2022-10-22T01:34:55;3.60;;;2.20;;
18066;SDS011;9158;51.528;7.192;2022-10-22T01:35:31;3.75;;;2.50;;
18066;SDS011;9158;51.528;7.192;2022-10-22T01:36:05;5.20;;;2.65;;
18066;SDS011;9158;51.528;7.192;2022-10-22T01:36:37;3.95;;;2.35;;
18066;SDS011;9158;51.528;7.192;2022-10-22T01:37:09;2.08;;;1.83;;
18066;SDS011;9158;51.528;7.192;2022-10-22T01:37:44;1.90;;;1.80;;
18066;SDS011;9158;51.528;7.192;2022-10-22T01:38:20;5.00;;;2.38;;
18066;SDS011;9158;51.528;7.192;2022-10-22T01:38:54;3.50;;;3.10;;
18066;SDS011;9158;51.528;7.192;2022-10-22T01:39:26;2.72;;;2.10;;
18066;SDS011;9158;51.528;7.192;2022-10-22T01:39:59;4.75;;;3.20;;
18066;SDS011;9158;51.528;7.192;2022-10-22T01:40:33;3.42;;;2.35;;
18066;SDS011;9158;51.528;7.192;2022-10-22T01:41:05;4.10;;;2.72;;
18066;SDS011;9158;51.528;7.192;2022-10-22T01:41:38;2.90;;;2.30;;
18066;SDS011;9158;51.528;7.192;2022-10-22T01:42:14;3.13;;;2.83;;
18066;SDS011;9158;51.528;7.192;2022-10-22T01:42:53;3.17;;;2.25;;
18066;SDS011;9158;51.528;7.192;2022-10-22T01:43:25;2.58;;;1.80;;
18066;SDS011;9158;51.528;7.192;2022-10-22T01:43:59;8.40;;;2.40;;
18066;SDS011;9158;51.528;7.192;2022-10-22T01:44:30;5.13;;;2.55;;
18066;SDS011;9158;51.528;7.192;2022-10-22T01:45:07;3.50;;;2.30;;
18066;SDS011;9158;51.528;7.192;2022-10-22T01:45:42;4.03;;;2.17;;
18066;SDS011;9158;51.528;7.192;2022-10-22T01:46:16;2.20;;;2.00;;
18066;SDS011;9158;51.528;7.192;2022-10-22T01:46:49;4.50;;;2.40;;
18066;SDS011;9158;51.528;7.192;2022-10-22T01:47:29;5.07;;;2.75;;
18066;SDS011;9158;51.528;7.192;2022-10-22T01:48:14;2.47;;;2.28;;
18066;SDS011;9158;51.528;7.192;2022-10-22T01:48:58;4.88;;;2.55;;
18066;SDS011;9158;51.528;7.192;2022-10-22T01:49:58;6.70;;;2.33;;
18066;SDS011;9158;51.528;7.192;2022-10-22T01:50:50;4.63;;;2.35;;
18066;SDS011;9158;51.528;7.192;2022-10-22T01:51:34;2.78;;;2.40;;
18066;SDS011;9158;51.528;7.192;2022-10-22T01:52:19;3.20;;;2.40;;
18066;SDS011;9158;51.528;7.192;2022-10-22T01:53:53;4.13;;;3.13;;
18066;SDS011;9158;51.528;7.192;2022-10-22T01:54:32;2.88;;;1.90;;
18066;SDS011;9158;51.528;7.192;2022-10-22T01:55:13;2.95;;;2.65;;
18066;SDS011;9158;51.528;7.192;2022-10-22T01:55:53;3.65;;;2.35;;
18066;SDS011;9158;51.528;7.192;2022-10-22T01:56:39;3.58;;;2.30;;
18066;SDS011;9158;51.528;7.192;2022-10-22T01:57:25;2.65;;;2.42;;
18066;SDS011;9158;51.528;7.192;2022-10-22T01:58:06;6.97;;;2.35;;
18066;SDS011;9158;51.528;7.192;2022-10-22T01:58:48;2.45;;;2.25;;
18066;SDS011;9158;51.528;7.192;2022-10-22T01:59:32;4.60;;;2.65;;
18066;SDS011;9158;51.528;7.192;2022-10-22T02:00:12;4.10;;;3.20;;
18066;SDS011;9158;51.528;7.192;2022-10-22T02:00:48;2.47;;;2.00;;
18066;SDS011;9158;51.528;7.192;2022-10-22T02:01:26;3.72;;;2.42;;
18066;SDS011;9158;51.528;7.192;2022-10-22T02:02:03;3.10;;;2.67;;
18066;SDS011;9158;51.528;7.192;2022-10-22T02:02:41;4.97;;;2.80;;
18066;SDS011;9158;51.528;7.192;2022-10-22T02:03:17;4.53;;;2.50;;
18066;SDS011;9158;51.528;7.192;2022-10-22T02:03:55;4.93;;;2.80;;
18066;SDS011;9158;51.528;7.192;2022-10-22T02:04:32;2.63;;;2.40;;
18066;SDS011;9158;51.528;7.192;2022-10-22T02:05:11;5.80;;;2.55;;
18066;SDS011;9158;51.528;7.192;2022-10-22T02:05:46;2.95;;;2.40;;
18066;SDS011;9158;51.528;7.192;2022-10-22T02:06:21;2.40;;;2.20;;
18066;SDS011;9158;51.528;7.192;2022-10-22T02:06:55;3.42;;;2.45;;
18066;SDS011;9158;51.528;7.192;2022-10-22T02:07:29;3.58;;;2.28;;
18066;SDS011;9158;51.528;7.192;2022-10-22T02:08:07;3.58;;;2.65;;
18066;SDS011;9158;51.528;7.192;2022-10-22T02:08:40;4.47;;;3.03;;
18066;SDS011;9158;51.528;7.192;2022-10-22T02:09:12;6.22;;;2.75;;
18066;SDS011;9158;51.528;7.192;2022-10-22T02:09:48;3.75;;;2.70;;
18066;SDS011;9158;51.528;7.192;2022-10-22T02:10:21;3.28;;;2.38;;
18066;SDS011;9158;51.528;7.192;2022-10-22T02:10:53;3.45;;;2.45;;
18066;SDS011;9158;51.528;7.192;2022-10-22T02:11:26;3.20;;;2.42;;
18066;SDS011;9158;51.528;7.192;2022-10-22T02:11:59;5.65;;;4.65;;
18066;SDS011;9158;51.528;7.192;2022-10-22T02:12:35;3.42;;;3.13;;
18066;SDS011;9158;51.528;7.192;2022-10-22T02:13:10;3.80;;;2.67;;
18066;SDS011;9158;51.528;7.192;2022-10-22T02:13:46;7.80;;;2.92;;
18066;SDS011;9158;51.528;7.192;2022-10-22T02:14:20;4.00;;;2.47;;
18066;SDS011;9158;51.528;7.192;2022-10-22T02:14:55;3.80;;;2.78;;
18066;SDS011;9158;51.528;7.192;2022-10-22T02:15:27;3.60;;;2.45;;
18066;SDS011;9158;51.528;7.192;2022-10-22T02:16:02;6.63;;;2.58;;
18066;SDS011;9158;51.528;7.192;2022-10-22T02:16:37;6.47;;;2.35;;
18066;SDS011;9158;51.528;7.192;2022-10-22T02:17:12;5.15;;;2.35;;
18066;SDS011;9158;51.528;7.192;2022-10-22T02:17:45;4.57;;;2.35;;
18066;SDS011;9158;51.528;7.192;2022-10-22T02:18:18;7.38;;;2.65;;
18066;SDS011;9158;51.528;7.192;2022-10-22T02:18:51;3.90;;;2.00;;
18066;SDS011;9158;51.528;7.192;2022-10-22T02:19:25;3.95;;;2.17;;
18066;SDS011;9158;51.528;7.192;2022-10-22T02:20:00;7.70;;;2.97;;
18066;SDS011;9158;51.528;7.192;2022-10-22T02:20:35;2.30;;;2.10;;
18066;SDS011;9158;51.528;7.192;2022-10-22T02:21:10;5.60;;;2.38;;
18066;SDS011;9158;51.528;7.192;2022-10-22T02:21:42;2.17;;;1.80;;
18066;SDS011;9158;51.528;7.192;2022-10-22T02:22:14;2.38;;;1.88;;
18066;SDS011;9158;51.528;7.192;2022-10-22T02:22:45;4.10;;;2.40;;
18066;SDS011;9158;51.528;7.192;2022-10-22T02:23:17;4.18;;;2.25;;
18066;SDS011;9158;51.528;7.192;2022-10-22T02:23:50;2.85;;;1.85;;
18066;SDS011;9158;51.528;7.192;2022-10-22T02:24:21;4.20;;;2.28;;
18066;SDS011;9158;51.528;7.192;2022-10-22T02:24:53;4.22;;;1.95;;
18066;SDS011;9158;51.528;7.192;2022-10-22T02:25:26;3.03;;;2.28;;
18066;SDS011;9158;51.528;7.192;2022-10-22T02:26:01;3.70;;;2.75;;
18066;SDS011;9158;51.528;7.192;2022-10-22T02:26:38;3.80;;;2.63;;
18066;SDS011;9158;51.528;7.192;2022-10-22T02:27:15;3.15;;;2.20;;
18066;SDS011;9158;51.528;7.192;2022-10-22T02:27:51;5.05;;;2.47;;
18066;SDS011;9158;51.528;7.192;2022-10-22T02:28:33;3.25;;;2.17;;
18066;SDS011;9158;51.528;7.192;2022-10-22T02:29:10;3.17;;;2.13;;
18066;SDS011;9158;51.528;7.192;2022-10-22T02:29:46;4.05;;;1.80;;
18066;SDS011;9158;51.528;7.192;2022-10-22T02:30:24;2.40;;;2.10;;
18066;SDS011;9158;51.528;7.192;2022-10-22T02:30:58;4.55;;;2.42;;
18066;SDS011;9158;51.528;7.192;2022-10-22T02:31:34;2.90;;;1.98;;
18066;SDS011;9158;51.528;7.192;2022-10-22T02:32:08;3.22;;;2.22;;
18066;SDS011;9158;51.528;7.192;2022-10-22T02:32:43;5.10;;;2.13;;
18066;SDS011;9158;51.528;7.192;2022-10-22T02:33:20;5.40;;;2.35;;
18066;SDS011;9158;51.528;7.192;2022-10-22T02:33:55;4.80;;;2.30;;
18066;SDS011;9158;51.528;7.192;2022-10-22T02:34:30;5.32;;;2.58;;
18066;SDS011;9158;51.528;7.192;2022-10-22T02:35:02;4.72;;;2.70;;
18066;SDS011;9158;51.528;7.192;2022-10-22T02:35:34;6.05;;;2.40;;
18066;SDS011;9158;51.528;7.192;2022-10-22T02:36:09;5.13;;;2.72;;
18066;SDS011;9158;51.528;7.192;2022-10-22T02:36:41;4.78;;;3.97;;
18066;SDS011;9158;51.528;7.192;2022-10-22T02:37:13;6.28;;;2.25;;
18066;SDS011;9158;51.528;7.192;2022-10-22T02:37:46;3.53;;;2.78;;
18066;SDS011;9158;51.528;7.192;2022-10-22T02:38:19;3.40;;;2.00;;
18066;SDS011;9158;51.528;7.192;2022-10-22T02:38:52;4.85;;;2.83;;
18066;SDS011;9158;51.528;7.192;2022-10-22T02:39:24;4.82;;;2.75;;
18066;SDS011;9158;51.528;7.192;2022-10-22T02:39:56;4.78;;;2.85;;
18066;SDS011;9158;51.528;7.192;2022-10-22T02:40:28;14.53;;;3.53;;
18066;SDS011;9158;51.528;7.192;2022-10-22T02:41:01;3.45;;;2.67;;
18066;SDS011;9158;51.528;7.192;2022-10-22T02:41:33;6.80;;;4.43;;
18066;SDS011;9158;51.528;7.192;2022-10-22T02:42:04;3.17;;;2.80;;
18066;SDS011;9158;51.528;7.192;2022-10-22T02:42:36;2.53;;;2.33;;
18066;SDS011;9158;51.528;7.192;2022-10-22T02:43:09;4.78;;;3.00;;
18066;SDS011;9158;51.528;7.192;2022-10-22T02:43:40;3.10;;;2.45;;
18066;SDS011;9158;51.528;7.192;2022-10-22T02:44:13;4.10;;;3.03;;
18066;SDS011;9158;51.528;7.192;2022-10-22T02:44:45;2.72;;;2.53;;
18066;SDS011;9158;51.528;7.192;2022-10-22T02:45:16;3.50;;;2.40;;
18066;SDS011;9158;51.528;7.192;2022-10-22T02:45:50;4.00;;;3.42;;
18066;SDS011;9158;51.528;7.192;2022-10-22T02:46:22;6.70;;;3.03;;
18066;SDS011;9158;51.528;7.192;2022-10-22T02:46:55;4.22;;;2.75;;
18066;SDS011;9158;51.528;7.192;2022-10-22T02:47:27;4.40;;;2.63;;
18066;SDS011;9158;51.528;7.192;2022-10-22T02:47:58;4.32;;;3.10;;
18066;SDS011;9158;51.528;7.192;2022-10-22T02:48:30;3.50;;;2.95;;
18066;SDS011;9158;51.528;7.192;2022-10-22T02:49:01;5.07;;;3.80;;
18066;SDS011;9158;51.528;7.192;2022-10-22T02:49:31;3.37;;;2.73;;
18066;SDS011;9158;51.528;7.192;2022-10-22T02:50:04;3.45;;;2.30;;
18066;SDS011;9158;51.528;7.192;2022-10-22T02:50:36;4.55;;;3.22;;
18066;SDS011;9158;51.528;7.192;2022-10-22T02:51:06;4.67;;;2.83;;
18066;SDS011;9158;51.528;7.192;2022-10-22T02:51:38;4.13;;;2.92;;
18066;SDS011;9158;51.528;7.192;2022-10-22T02:52:09;5.10;;;2.60;;
18066;SDS011;9158;51.528;7.192;2022-10-22T02:52:40;2.60;;;2.40;;
18066;SDS011;9158;51.528;7.192;2022-10-22T02:53:12;6.18;;;3.22;;
18066;SDS011;9158;51.528;7.192;2022-10-22T02:53:44;4.45;;;2.70;;
18066;SDS011;9158;51.528;7.192;2022-10-22T02:54:15;6.63;;;3.20;;
18066;SDS011;9158;51.528;7.192;2022-10-22T02:54:47;3.67;;;3.08;;
18066;SDS011;9158;51.528;7.192;2022-10-22T02:55:18;4.30;;;2.83;;
18066;SDS011;9158;51.528;7.192;2022-10-22T02:55:49;4.32;;;3.05;;
18066;SDS011;9158;51.528;7.192;2022-10-22T02:56:20;3.60;;;2.85;;
18066;SDS011;9158;51.528;7.192;2022-10-22T02:56:51;5.97;;;3.70;;
18066;SDS011;9158;51.528;7.192;2022-10-22T02:57:22;7.17;;;3.60;;
18066;SDS011;9158;51.528;7.192;2022-10-22T02:57:54;4.18;;;3.20;;
18066;SDS011;9158;51.528;7.192;2022-10-22T02:58:25;6.13;;;4.00;;
18066;SDS011;9158;51.528;7.192;2022-10-22T02:58:56;5.35;;;3.33;;
18066;SDS011;9158;51.528;7.192;2022-10-22T02:59:27;6.95;;;4.10;;
18066;SDS011;9158;51.528;7.192;2022-10-22T02:59:59;3.92;;;3.45;;
18066;SDS011;9158;51.528;7.192;2022-10-22T03:00:30;7.93;;;3.15;;
18066;SDS011;9158;51.528;7.192;2022-10-22T03:01:02;3.63;;;3.33;;
18066;SDS011;9158;51.528;7.192;2022-10-22T03:01:34;4.50;;;3.15;;
18066;SDS011;9158;51.528;7.192;2022-10-22T03:02:05;4.40;;;2.83;;
18066;SDS011;9158;51.528;7.192;2022-10-22T03:02:36;9.47;;;3.87;;
18066;SDS011;9158;51.528;7.192;2022-10-22T03:03:08;3.63;;;3.20;;
18066;SDS011;9158;51.528;7.192;2022-10-22T03:03:39;3.13;;;2.90;;
18066;SDS011;9158;51.528;7.192;2022-10-22T03:04:10;6.03;;;3.20;;
18066;SDS011;9158;51.528;7.192;2022-10-22T03:04:42;4.68;;;2.60;;
18066;SDS011;9158;51.528;7.192;2022-10-22T03:05:13;3.72;;;2.50;;
18066;SDS011;9158;51.528;7.192;2022-10-22T03:05:44;4.10;;;2.55;;
18066;SDS011;9158;51.528;7.192;2022-10-22T03:06:16;4.18;;;2.42;;
18066;SDS011;9158;51.528;7.192;2022-10-22T03:06:47;9.73;;;3.28;;
18066;SDS011;9158;51.528;7.192;2022-10-22T03:07:18;3.85;;;2.90;;
18066;SDS011;9158;51.528;7.192;2022-10-22T03:07:50;2.97;;;2.78;;
18066;SDS011;9158;51.528;7.192;2022-10-22T03:08:21;4.20;;;2.53;;
18066;SDS011;9158;51.528;7.192;2022-10-22T03:08:52;3.20;;;2.50;;
18066;SDS011;9158;51.528;7.192;2022-10-22T03:09:23;4.35;;;2.92;;
18066;SDS011;9158;51.528;7.192;2022-10-22T03:09:55;3.22;;;2.50;;
18066;SDS011;9158;51.528;7.192;2022-10-22T03:10:25;2.53;;;2.30;;
18066;SDS011;9158;51.528;7.192;2022-10-22T03:10:57;5.05;;;2.40;;
18066;SDS011;9158;51.528;7.192;2022-10-22T03:11:28;3.60;;;2.80;;
18066;SDS011;9158;51.528;7.192;2022-10-22T03:11:59;3.67;;;2.70;;
18066;SDS011;9158;51.528;7.192;2022-10-22T03:12:31;4.15;;;2.53;;
18066;SDS011;9158;51.528;7.192;2022-10-22T03:13:02;4.97;;;2.40;;
18066;SDS011;9158;51.528;7.192;2022-10-22T03:13:33;4.30;;;3.27;;
18066;SDS011;9158;51.528;7.192;2022-10-22T03:14:05;5.43;;;2.90;;
18066;SDS011;9158;51.528;7.192;2022-10-22T03:14:36;4.50;;;3.00;;
18066;SDS011;9158;51.528;7.192;2022-10-22T03:15:07;7.73;;;3.40;;
18066;SDS011;9158;51.528;7.192;2022-10-22T03:15:39;7.40;;;3.10;;
18066;SDS011;9158;51.528;7.192;2022-10-22T03:16:11;5.00;;;3.20;;
18066;SDS011;9158;51.528;7.192;2022-10-22T03:16:42;2.95;;;2.38;;
18066;SDS011;9158;51.528;7.192;2022-10-22T03:17:14;3.70;;;2.60;;
18066;SDS011;9158;51.528;7.192;2022-10-22T03:17:45;3.37;;;2.70;;
18066;SDS011;9158;51.528;7.192;2022-10-22T03:18:16;4.23;;;2.83;;
18066;SDS011;9158;51.528;7.192;2022-10-22T03:18:48;4.40;;;2.80;;
18066;SDS011;9158;51.528;7.192;2022-10-22T03:19:19;6.90;;;3.20;;
18066;SDS011;9158;51.528;7.192;2022-10-22T03:19:50;4.27;;;3.83;;
18066;SDS011;9158;51.528;7.192;2022-10-22T03:20:22;16.80;;;4.68;;
18066;SDS011;9158;51.528;7.192;2022-10-22T03:20:58;4.83;;;3.93;;
18066;SDS011;9158;51.528;7.192;2022-10-22T03:21:34;8.18;;;6.03;;
18066;SDS011;9158;51.528;7.192;2022-10-22T03:22:10;8.38;;;6.90;;
18066;SDS011;9158;51.528;7.192;2022-10-22T03:22:44;9.02;;;8.13;;
18066;SDS011;9158;51.528;7.192;2022-10-22T03:23:17;11.63;;;9.52;;
18066;SDS011;9158;51.528;7.192;2022-10-22T03:23:49;8.90;;;6.03;;
18066;SDS011;9158;51.528;7.192;2022-10-22T03:24:21;7.80;;;5.20;;
18066;SDS011;9158;51.528;7.192;2022-10-22T03:24:57;3.55;;;3.25;;
18066;SDS011;9158;51.528;7.192;2022-10-22T03:25:32;3.60;;;3.30;;
18066;SDS011;9158;51.528;7.192;2022-10-22T03:26:03;4.30;;;3.08;;
18066;SDS011;9158;51.528;7.192;2022-10-22T03:26:37;5.55;;;3.95;;
18066;SDS011;9158;51.528;7.192;2022-10-22T03:27:11;5.03;;;3.92;;
18066;SDS011;9158;51.528;7.192;2022-10-22T03:27:44;5.88;;;4.00;;
18066;SDS011;9158;51.528;7.192;2022-10-22T03:28:16;5.85;;;3.78;;
18066;SDS011;9158;51.528;7.192;2022-10-22T03:28:48;7.30;;;4.65;;
18066;SDS011;9158;51.528;7.192;2022-10-22T03:29:19;4.50;;;3.58;;
18066;SDS011;9158;51.528;7.192;2022-10-22T03:29:53;4.20;;;3.53;;
18066;SDS011;9158;51.528;7.192;2022-10-22T03:30:26;5.40;;;3.63;;
18066;SDS011;9158;51.528;7.192;2022-10-22T03:30:57;3.90;;;3.17;;
18066;SDS011;9158;51.528;7.192;2022-10-22T03:31:29;7.13;;;3.43;;